Time;durP1;ratioP1;P1;durP2;ratioP2;P2;SDS_P1;SDS_P2;PMS_P1;PMS_P2;Temp;Humidity;BMP_temperature;BMP_pressure;BME280_temperature;BME280_humidity;BME280_pressure;Samples;Min_cycle;Max_cycle;Signal;HPM_P1;HPM_P2
2021/01/26 00:01:53;;;;;;;20.17;12.90;;;0.90;99.90;;;;;;5091928;28;20229;-89
2021/01/26 00:04:20;;;;;;;14.13;10.10;;;0.90;99.90;;;;;;5088359;28;20205;-88
2021/01/26 00:06:46;;;;;;;16.00;10.57;;;1.00;99.90;;;;;;5095870;28;20229;-88
2021/01/26 00:09:13;;;;;;;19.63;10.85;;;1.10;99.90;;;;;;5090147;28;20217;-88
2021/01/26 00:11:40;;;;;;;15.15;10.52;;;1.10;99.90;;;;;;5088862;28;20233;-88
2021/01/26 00:14:06;;;;;;;19.30;11.30;;;1.00;99.90;;;;;;5080858;28;20190;-85
2021/01/26 00:16:33;;;;;;;14.90;11.43;;;1.10;99.90;;;;;;5078441;28;20225;-87
2021/01/26 00:18:59;;;;;;;18.05;11.05;;;1.10;99.90;;;;;;5074070;28;20233;-85
2021/01/26 00:21:25;;;;;;;16.98;10.98;;;1.10;99.90;;;;;;5074385;28;20358;-84
2021/01/26 00:23:52;;;;;;;12.70;7.72;;;1.20;99.90;;;;;;5074167;28;20208;-85
2021/01/26 00:26:18;;;;;;;17.65;11.80;;;1.10;99.90;;;;;;5074272;28;20281;-86
2021/01/26 00:28:46;;;;;;;19.15;11.57;;;1.10;99.90;;;;;;5071499;28;20202;-86
2021/01/26 00:31:12;;;;;;;18.17;11.75;;;1.10;99.90;;;;;;5074192;28;20244;-86
2021/01/26 00:33:38;;;;;;;15.45;11.20;;;1.20;99.90;;;;;;5072909;28;20233;-87
2021/01/26 00:36:05;;;;;;;17.35;12.35;;;1.20;99.90;;;;;;5073894;28;20209;-87
2021/01/26 00:38:32;;;;;;;16.17;10.60;;;1.10;99.90;;;;;;5073863;28;20212;-86
2021/01/26 00:40:58;;;;;;;16.25;11.85;;;1.10;99.90;;;;;;5068178;28;20296;-86
2021/01/26 00:43:24;;;;;;;17.90;12.27;;;1.20;99.90;;;;;;5073984;28;20751;-86
2021/01/26 00:45:52;;;;;;;16.25;9.82;;;1.10;99.90;;;;;;5073940;28;20198;-87
2021/01/26 00:48:18;;;;;;;22.83;13.52;;;1.10;99.90;;;;;;5072342;28;20202;-86
2021/01/26 00:50:44;;;;;;;17.33;10.75;;;1.10;99.90;;;;;;5073773;28;20212;-86
2021/01/26 00:53:11;;;;;;;20.65;10.93;;;1.10;99.90;;;;;;5073139;28;20231;-85
2021/01/26 00:55:39;;;;;;;13.50;8.85;;;1.10;99.90;;;;;;5073617;28;20202;-86
2021/01/26 00:58:05;;;;;;;19.58;11.48;;;1.10;99.90;;;;;;5073232;28;20674;-86
2021/01/26 01:00:35;;;;;;;16.50;10.68;;;1.00;99.90;;;;;;5073473;28;20240;-85
2021/01/26 01:03:03;;;;;;;21.48;11.27;;;1.00;99.90;;;;;;5073807;28;20581;-87
2021/01/26 01:05:29;;;;;;;17.98;11.15;;;0.90;99.90;;;;;;5072126;28;20238;-86
2021/01/26 01:07:56;;;;;;;14.10;9.82;;;0.90;99.90;;;;;;5070057;28;20567;-86
2021/01/26 01:10:31;;;;;;;16.40;9.95;;;0.80;99.90;;;;;;5073328;28;20653;-86
2021/01/26 01:12:57;;;;;;;19.48;11.80;;;0.80;99.90;;;;;;5072987;28;20700;-87
2021/01/26 01:15:24;;;;;;;20.13;11.77;;;0.70;99.90;;;;;;5073242;28;20233;-87
2021/01/26 01:17:51;;;;;;;20.45;11.63;;;0.70;99.90;;;;;;5073235;28;20266;-87
2021/01/26 01:20:21;;;;;;;20.15;12.35;;;0.70;99.90;;;;;;5071143;28;20772;-88
2021/01/26 01:22:48;;;;;;;18.58;10.93;;;0.60;99.90;;;;;;5072751;28;20679;-87
2021/01/26 01:25:15;;;;;;;19.08;12.10;;;0.60;99.90;;;;;;5069957;28;20208;-89
2021/01/26 01:27:41;;;;;;;23.50;13.57;;;0.60;99.90;;;;;;5072959;28;20254;-86
2021/01/26 01:30:12;;;;;;;20.70;11.95;;;0.70;99.90;;;;;;5072967;28;20205;-88
2021/01/26 01:32:38;;;;;;;16.90;10.70;;;0.70;99.90;;;;;;5069661;28;20225;-88
2021/01/26 01:35:06;;;;;;;20.30;14.27;;;0.70;99.90;;;;;;5071467;28;20673;-87
2021/01/26 01:37:34;;;;;;;24.20;12.40;;;0.70;99.90;;;;;;5072803;28;20217;-89
2021/01/26 01:40:00;;;;;;;21.40;13.55;;;0.70;99.90;;;;;;5073074;28;20205;-87
2021/01/26 01:42:26;;;;;;;17.45;11.50;;;0.80;99.90;;;;;;5073511;28;20201;-88
2021/01/26 01:44:53;;;;;;;15.93;11.35;;;0.80;99.90;;;;;;5072824;28;20205;-89
2021/01/26 01:47:28;;;;;;;15.70;12.40;;;0.80;99.90;;;;;;5073014;28;20613;-88
2021/01/26 01:49:56;;;;;;;18.27;12.45;;;0.80;99.90;;;;;;5071373;28;20295;-88
2021/01/26 01:52:26;;;;;;;21.00;14.27;;;0.90;99.90;;;;;;5068500;28;20237;-88
2021/01/26 01:54:58;;;;;;;27.65;14.57;;;0.90;99.90;;;;;;5072794;28;20204;-88
2021/01/26 01:57:29;;;;;;;17.48;11.38;;;1.00;99.90;;;;;;5073089;28;20296;-87
2021/01/26 01:59:58;;;;;;;18.52;12.77;;;0.90;99.90;;;;;;5072860;28;20282;-88
2021/01/26 02:02:29;;;;;;;20.15;12.35;;;0.90;99.90;;;;;;5073052;28;20296;-87
2021/01/26 02:04:58;;;;;;;21.92;13.50;;;0.90;99.90;;;;;;5067414;28;20201;-88
2021/01/26 02:07:27;;;;;;;19.38;10.20;;;1.00;99.90;;;;;;5072695;28;20209;-87
2021/01/26 02:09:54;;;;;;;18.00;11.13;;;1.00;99.90;;;;;;5072468;28;20288;-87
2021/01/26 02:12:20;;;;;;;16.02;11.07;;;1.00;99.90;;;;;;5072555;28;20320;-86
2021/01/26 02:14:51;;;;;;;14.90;10.77;;;1.00;99.90;;;;;;5072753;28;20291;-87
2021/01/26 02:17:30;;;;;;;13.38;9.77;;;1.10;99.90;;;;;;5076125;28;20211;-87
2021/01/26 02:20:40;;;;;;;14.15;9.05;;;1.10;99.90;;;;;;5066160;28;20292;-87
2021/01/26 02:23:32;;;;;;;16.70;9.52;;;1.10;99.90;;;;;;5065095;28;20233;-86
2021/01/26 02:26:40;;;;;;;11.80;7.85;;;1.10;99.90;;;;;;5055095;28;20204;-87
2021/01/26 02:29:10;;;;;;;14.32;8.23;;;1.10;99.90;;;;;;5066811;28;20209;-86
2021/01/26 02:32:02;;;;;;;11.60;7.25;;;1.20;99.90;;;;;;5073906;28;20544;-86
2021/01/26 02:35:06;;;;;;;11.70;6.57;;;1.20;99.90;;;;;;5074873;28;20197;-84
2021/01/26 02:38:16;;;;;;;10.50;6.38;;;1.10;99.90;;;;;;5075794;28;20209;-86
2021/01/26 02:40:50;;;;;;;9.80;6.10;;;1.20;99.90;;;;;;5083700;28;20296;-87
2021/01/26 02:43:58;;;;;;;15.68;7.85;;;1.20;99.90;;;;;;5076388;28;20202;-88
2021/01/26 02:46:33;;;;;;;10.48;7.32;;;1.10;99.90;;;;;;5039981;28;20208;-86
2021/01/26 02:49:09;;;;;;;11.57;7.28;;;1.10;99.90;;;;;;5074931;28;20250;-86
2021/01/26 02:51:48;;;;;;;9.40;6.00;;;1.20;99.90;;;;;;5075662;28;20205;-87
2021/01/26 02:54:21;;;;;;;11.82;6.00;;;1.20;99.90;;;;;;5076034;28;20207;-86
2021/01/26 02:56:55;;;;;;;14.07;7.90;;;1.20;99.90;;;;;;5075954;28;20210;-87
2021/01/26 02:59:28;;;;;;;14.98;7.75;;;1.20;99.90;;;;;;5075772;28;20247;-87
2021/01/26 03:02:03;;;;;;;12.45;6.88;;;1.20;99.90;;;;;;5075794;28;20213;-86
2021/01/26 03:04:38;;;;;;;12.55;7.03;;;1.30;99.90;;;;;;5074513;28;20254;-86
2021/01/26 03:07:08;;;;;;;13.05;6.55;;;1.20;99.90;;;;;;5071285;28;20292;-87
2021/01/26 03:09:41;;;;;;;15.10;8.02;;;1.10;99.90;;;;;;5075481;28;20206;-86
2021/01/26 03:12:15;;;;;;;14.13;7.50;;;1.10;99.90;;;;;;5075638;28;20392;-87
2021/01/26 03:14:47;;;;;;;9.50;6.90;;;1.10;99.90;;;;;;5075528;28;20201;-86
2021/01/26 03:17:18;;;;;;;8.95;6.60;;;1.10;99.90;;;;;;5075493;28;20293;-87
2021/01/26 03:19:48;;;;;;;8.38;6.65;;;1.10;99.90;;;;;;5074303;28;20293;-86
2021/01/26 03:22:17;;;;;;;9.10;5.72;;;1.10;99.90;;;;;;5074917;28;20210;-86
2021/01/26 03:24:45;;;;;;;7.45;5.85;;;1.00;99.90;;;;;;5071353;28;20218;-88
2021/01/26 03:27:16;;;;;;;12.43;5.93;;;0.90;99.90;;;;;;5075681;28;20270;-87
2021/01/26 03:29:46;;;;;;;8.65;5.72;;;0.90;99.90;;;;;;5072033;28;20656;-88
2021/01/26 03:32:16;;;;;;;7.60;6.25;;;0.90;99.90;;;;;;5075419;28;20228;-90
2021/01/26 03:34:42;;;;;;;11.95;5.68;;;0.90;99.90;;;;;;5074183;28;20562;-88
2021/01/26 03:37:09;;;;;;;9.00;6.47;;;0.80;99.90;;;;;;5074908;28;20206;-88
2021/01/26 03:39:36;;;;;;;7.47;5.15;;;0.90;99.90;;;;;;5075476;28;20237;-87
2021/01/26 03:42:03;;;;;;;8.23;5.43;;;0.90;99.90;;;;;;5075416;28;20258;-89
2021/01/26 03:44:31;;;;;;;9.52;6.13;;;0.90;99.90;;;;;;5074441;28;20560;-88
2021/01/26 03:47:25;;;;;;;12.63;5.97;;;0.80;99.90;;;;;;5075463;28;20206;-87
2021/01/26 03:50:17;;;;;;;9.90;4.85;;;0.80;99.90;;;;;;5074267;28;20654;-88
2021/01/26 03:53:09;;;;;;;11.80;5.63;;;0.70;99.90;;;;;;5063185;28;20237;-87
2021/01/26 03:55:42;;;;;;;7.75;4.57;;;0.70;99.90;;;;;;5056356;28;20202;-88
2021/01/26 03:58:23;;;;;;;9.73;6.50;;;0.80;99.90;;;;;;5056770;28;20213;-88
2021/01/26 04:00:59;;;;;;;8.70;5.45;;;0.90;99.90;;;;;;4996105;28;20215;-88
2021/01/26 04:03:37;;;;;;;12.95;5.95;;;0.90;99.90;;;;;;4977445;28;20200;-89
2021/01/26 04:06:11;;;;;;;7.10;4.93;;;0.90;99.90;;;;;;4995690;28;20204;-88
2021/01/26 04:08:40;;;;;;;9.38;4.97;;;1.00;99.90;;;;;;4992377;28;20276;-87
2021/01/26 04:11:13;;;;;;;6.05;4.75;;;1.00;99.90;;;;;;4995693;28;20738;-89
2021/01/26 04:13:47;;;;;;;10.68;5.90;;;1.00;99.90;;;;;;5001621;28;20256;-88
2021/01/26 04:16:21;;;;;;;8.75;6.05;;;1.00;99.90;;;;;;5017277;28;20192;-89
2021/01/26 04:18:50;;;;;;;14.63;5.80;;;1.00;99.90;;;;;;5042810;28;20209;-89
2021/01/26 04:21:18;;;;;;;6.85;4.15;;;1.10;99.90;;;;;;5029352;28;20202;-87
2021/01/26 04:23:45;;;;;;;10.98;6.22;;;1.10;99.90;;;;;;5079134;28;20229;-88
2021/01/26 04:26:17;;;;;;;11.07;6.28;;;1.10;99.90;;;;;;5079063;28;20201;-87
2021/01/26 04:28:47;;;;;;;8.60;5.47;;;1.10;99.90;;;;;;5076485;28;20247;-88
2021/01/26 04:31:16;;;;;;;8.90;5.68;;;1.10;99.90;;;;;;5071319;28;20191;-88
2021/01/26 04:33:43;;;;;;;7.03;5.78;;;1.10;99.90;;;;;;5067331;28;20214;-88
2021/01/26 04:36:10;;;;;;;11.10;5.03;;;1.10;99.90;;;;;;5055340;28;20201;-88
2021/01/26 04:38:39;;;;;;;18.65;5.60;;;1.10;99.90;;;;;;5054499;28;20676;-88
2021/01/26 04:41:11;;;;;;;9.77;5.38;;;1.20;99.90;;;;;;5054368;28;20198;-86
2021/01/26 04:43:46;;;;;;;17.15;4.75;;;1.20;99.90;;;;;;5054464;28;20570;-87
2021/01/26 04:46:20;;;;;;;8.32;4.85;;;1.20;99.90;;;;;;5048422;28;20212;-87
2021/01/26 04:48:54;;;;;;;6.55;4.60;;;1.20;99.90;;;;;;5053738;28;20208;-87
2021/01/26 04:51:28;;;;;;;7.78;4.65;;;1.20;99.90;;;;;;5055634;28;20208;-89
2021/01/26 04:54:24;;;;;;;8.65;4.30;;;1.20;99.90;;;;;;5071840;28;20244;-87
2021/01/26 04:57:02;;;;;;;7.60;4.35;;;1.20;99.90;;;;;;5069855;28;20292;-86
2021/01/26 04:59:45;;;;;;;10.52;5.70;;;1.30;99.90;;;;;;5071345;28;20274;-85
2021/01/26 05:02:49;;;;;;;7.07;4.53;;;1.30;99.90;;;;;;5074416;28;20288;-85
2021/01/26 05:05:18;;;;;;;5.40;4.55;;;1.30;99.90;;;;;;5072465;28;20211;-85
2021/01/26 05:07:49;;;;;;;5.95;4.20;;;1.30;99.90;;;;;;5069379;28;20248;-84
2021/01/26 05:10:22;;;;;;;8.15;4.15;;;1.30;99.90;;;;;;5073472;28;20296;-85
2021/01/26 05:12:56;;;;;;;5.07;4.00;;;1.30;99.90;;;;;;5074278;28;20306;-83
2021/01/26 05:15:28;;;;;;;8.05;5.50;;;1.30;99.90;;;;;;5073499;28;20204;-84
2021/01/26 05:18:00;;;;;;;10.48;4.97;;;1.30;99.90;;;;;;5070216;28;20293;-84
2021/01/26 05:20:31;;;;;;;8.38;6.00;;;1.20;99.90;;;;;;5071990;28;20206;-85
2021/01/26 05:23:04;;;;;;;10.30;5.88;;;1.30;99.90;;;;;;5073277;28;20217;-85
2021/01/26 05:25:31;;;;;;;9.43;6.57;;;1.30;99.90;;;;;;5073158;28;20207;-84
2021/01/26 05:27:57;;;;;;;6.97;6.00;;;1.20;99.90;;;;;;5068840;28;20560;-84
2021/01/26 05:30:28;;;;;;;10.38;5.60;;;1.20;99.90;;;;;;5073301;28;20207;-85
2021/01/26 05:32:57;;;;;;;13.57;5.70;;;1.20;99.90;;;;;;5073021;28;20237;-86
2021/01/26 05:35:25;;;;;;;9.07;4.35;;;1.30;99.90;;;;;;5072049;28;20288;-87
2021/01/26 05:37:53;;;;;;;9.85;5.57;;;1.30;99.90;;;;;;5073516;28;20209;-85
2021/01/26 05:40:23;;;;;;;9.80;5.07;;;1.30;99.90;;;;;;5069358;28;20288;-85
2021/01/26 05:42:54;;;;;;;6.35;4.18;;;1.30;99.90;;;;;;5067804;28;20205;-85
2021/01/26 05:45:24;;;;;;;7.40;4.65;;;1.30;99.90;;;;;;5073117;28;20205;-85
2021/01/26 05:48:02;;;;;;;6.78;4.28;;;1.40;99.90;;;;;;5072592;28;20202;-84
2021/01/26 05:50:30;;;;;;;10.43;5.68;;;1.40;99.90;;;;;;5071943;28;20197;-85
2021/01/26 05:53:03;;;;;;;5.70;4.97;;;1.40;99.90;;;;;;5074513;28;20264;-84
2021/01/26 05:55:32;;;;;;;7.70;3.80;;;1.50;99.90;;;;;;5072865;28;20205;-85
2021/01/26 05:58:10;;;;;;;9.18;4.88;;;1.40;99.90;;;;;;5073077;28;20209;-85
2021/01/26 06:00:39;;;;;;;5.50;4.18;;;1.50;99.90;;;;;;5072896;28;20205;-85
2021/01/26 06:03:17;;;;;;;6.57;4.65;;;1.50;99.90;;;;;;5070040;28;20208;-85
2021/01/26 06:05:57;;;;;;;6.70;4.45;;;1.50;99.90;;;;;;5072601;28;20213;-87
2021/01/26 06:08:24;;;;;;;4.88;3.92;;;1.50;99.90;;;;;;5077011;28;20221;-85
2021/01/26 06:10:50;;;;;;;4.40;4.00;;;1.40;99.90;;;;;;5077186;28;20208;-84
2021/01/26 06:13:25;;;;;;;8.60;3.85;;;1.40;99.90;;;;;;5076932;28;20251;-84
2021/01/26 06:16:09;;;;;;;12.27;4.25;;;1.50;99.90;;;;;;5076976;28;20544;-83
2021/01/26 06:18:38;;;;;;;8.10;4.43;;;1.50;99.90;;;;;;5076031;28;21162;-85
2021/01/26 06:21:08;;;;;;;7.60;4.75;;;1.60;99.90;;;;;;5076959;28;20201;-86
2021/01/26 06:23:37;;;;;;;6.45;3.70;;;1.50;99.90;;;;;;5076825;28;20702;-86
2021/01/26 06:26:06;;;;;;;7.88;4.63;;;1.60;99.90;;;;;;5076661;28;20315;-85
2021/01/26 06:29:01;;;;;;;5.93;3.85;;;1.60;99.90;;;;;;5076939;28;20612;-87
2021/01/26 06:31:37;;;;;;;6.60;4.20;;;1.60;99.90;;;;;;5076577;28;20198;-87
2021/01/26 06:34:19;;;;;;;5.18;3.25;;;1.60;99.90;;;;;;5075205;28;20239;-84
2021/01/26 06:37:06;;;;;;;4.88;2.13;;;1.60;99.90;;;;;;5024783;28;20201;-86
2021/01/26 06:40:07;;;;;;;7.10;3.88;;;1.70;99.90;;;;;;5075841;28;20296;-86
2021/01/26 06:42:48;;;;;;;5.25;2.50;;;1.70;99.90;;;;;;5029572;28;20695;-84
2021/01/26 06:45:21;;;;;;;4.80;2.67;;;1.60;99.90;;;;;;5077407;28;20220;-85
2021/01/26 06:48:08;;;;;;;11.40;2.90;;;1.60;99.90;;;;;;5074270;28;20284;-85
2021/01/26 06:51:05;;;;;;;7.40;3.45;;;1.60;99.90;;;;;;5069389;28;20629;-85
2021/01/26 06:53:42;;;;;;;5.10;3.60;;;1.60;99.90;;;;;;5075869;28;20237;-84
2021/01/26 06:56:23;;;;;;;4.85;3.33;;;1.60;99.90;;;;;;5076040;28;20202;-86
2021/01/26 06:59:15;;;;;;;2.53;1.55;;;1.70;99.90;;;;;;5075858;28;20236;-85
2021/01/26 07:01:57;;;;;;;4.93;2.08;;;1.60;99.90;;;;;;5066980;28;20288;-85
2021/01/26 07:04:40;;;;;;;3.65;2.08;;;1.60;99.90;;;;;;5075366;28;20285;-84
2021/01/26 07:07:48;;;;;;;3.53;2.30;;;1.60;99.90;;;;;;5076402;28;20570;-87
2021/01/26 07:10:25;;;;;;;4.72;2.10;;;1.60;99.90;;;;;;5076059;28;20212;-85
2021/01/26 07:13:07;;;;;;;3.95;2.90;;;1.60;99.90;;;;;;5077808;28;20232;-85
2021/01/26 07:16:08;;;;;;;5.85;2.92;;;1.60;99.90;;;;;;5075747;28;20246;-84
2021/01/26 07:18:57;;;;;;;4.10;3.33;;;1.60;99.90;;;;;;5050203;28;20209;-86
2021/01/26 07:21:39;;;;;;;2.63;2.42;;;1.60;99.90;;;;;;5075900;28;20254;-85
2021/01/26 07:24:25;;;;;;;6.45;2.95;;;1.60;99.90;;;;;;5072663;28;20213;-86
2021/01/26 07:27:29;;;;;;;4.15;2.83;;;1.60;99.90;;;;;;5074321;28;20701;-85
2021/01/26 07:30:01;;;;;;;4.30;2.67;;;1.60;99.90;;;;;;5077250;28;20612;-86
2021/01/26 07:32:35;;;;;;;2.92;2.72;;;1.60;99.90;;;;;;5075406;28;20236;-84
2021/01/26 07:35:13;;;;;;;4.22;3.15;;;1.70;99.90;;;;;;5074290;28;20205;-84
2021/01/26 07:37:50;;;;;;;6.05;3.38;;;1.70;99.90;;;;;;5075629;28;20206;-87
2021/01/26 07:40:24;;;;;;;5.72;3.53;;;1.70;99.90;;;;;;5077704;28;20292;-88
2021/01/26 07:42:58;;;;;;;4.20;3.80;;;1.80;99.90;;;;;;5072783;28;20209;-87
2021/01/26 07:45:29;;;;;;;5.70;4.20;;;1.80;99.90;;;;;;5075510;28;20209;-85
2021/01/26 07:48:02;;;;;;;4.75;3.25;;;1.80;99.90;;;;;;5078712;28;20213;-84
2021/01/26 07:50:33;;;;;;;5.13;3.10;;;2.00;99.90;;;;;;5075061;28;20265;-84
2021/01/26 07:53:05;;;;;;;4.43;2.17;;;1.90;99.90;;;;;;5076027;28;20234;-83
2021/01/26 07:55:38;;;;;;;3.15;2.65;;;2.00;99.90;;;;;;5075610;28;20201;-87
2021/01/26 07:58:07;;;;;;;5.80;2.50;;;1.90;99.90;;;;;;5077836;28;20206;-87
2021/01/26 08:00:37;;;;;;;3.08;2.42;;;2.00;99.90;;;;;;5079969;28;20691;-85
2021/01/26 08:03:04;;;;;;;3.00;2.80;;;2.00;99.90;;;;;;5077721;28;20677;-89
2021/01/26 08:05:44;;;;;;;4.93;2.25;;;2.00;99.90;;;;;;5079847;28;20289;-90
2021/01/26 08:08:18;;;;;;;5.30;2.30;;;2.10;99.90;;;;;;5074029;28;20228;-87
2021/01/26 08:10:46;;;;;;;3.45;2.10;;;2.20;99.90;;;;;;5077295;28;20632;-88
2021/01/26 08:13:24;;;;;;;3.75;2.83;;;2.20;99.90;;;;;;5076718;28;20240;-86
2021/01/26 08:15:50;;;;;;;7.40;2.50;;;2.30;99.90;;;;;;5078917;28;20250;-92
2021/01/26 08:18:25;;;;;;;2.47;2.28;;;2.30;99.90;;;;;;5075145;28;20296;-85
2021/01/26 08:20:52;;;;;;;3.15;2.35;;;2.20;99.90;;;;;;5076097;28;20262;-92
2021/01/26 08:23:25;;;;;;;3.75;2.17;;;2.20;99.90;;;;;;5071226;28;20246;-88
2021/01/26 08:25:55;;;;;;;3.63;2.55;;;2.30;99.90;;;;;;5076635;28;20256;-84
2021/01/26 08:28:44;;;;;;;3.40;2.63;;;2.40;99.90;;;;;;5075375;28;20259;-88
2021/01/26 08:31:29;;;;;;;12.68;3.25;;;2.40;99.90;;;;;;5086470;28;20253;-90
2021/01/26 08:34:16;;;;;;;4.15;2.53;;;2.50;99.90;;;;;;5097216;28;20260;-87
2021/01/26 08:36:43;;;;;;;5.38;2.45;;;2.60;99.90;;;;;;5085264;28;20198;-88
2021/01/26 08:39:41;;;;;;;3.22;2.10;;;2.50;99.90;;;;;;5092776;28;20274;-89
2021/01/26 08:42:10;;;;;;;3.25;2.55;;;2.50;99.90;;;;;;5099217;28;20239;-84
2021/01/26 08:44:47;;;;;;;5.63;3.38;;;2.40;99.90;;;;;;5099254;28;20213;-87
2021/01/26 08:47:48;;;;;;;5.85;2.47;;;2.50;99.90;;;;;;5082577;28;20197;-88
2021/01/26 08:50:24;;;;;;;3.28;2.45;;;2.40;99.90;;;;;;5086593;28;20276;-86
2021/01/26 08:52:53;;;;;;;3.72;2.65;;;2.40;99.90;;;;;;5079775;28;20278;-87
2021/01/26 08:55:37;;;;;;;4.18;2.45;;;2.50;99.90;;;;;;5075754;28;20244;-85
2021/01/26 08:58:05;;;;;;;4.53;2.20;;;2.50;99.90;;;;;;5080148;28;20710;-85
2021/01/26 09:00:48;;;;;;;4.30;2.97;;;2.60;99.90;;;;;;5081033;28;20208;-89
2021/01/26 09:03:37;;;;;;;4.45;2.72;;;2.60;99.90;;;;;;5074690;28;20201;-90
2021/01/26 09:06:10;;;;;;;2.85;2.15;;;2.60;99.90;;;;;;5073066;28;20216;-83
2021/01/26 09:09:00;;;;;;;4.10;3.15;;;2.50;99.90;;;;;;5073209;28;20212;-83
2021/01/26 09:11:33;;;;;;;3.47;2.85;;;2.60;99.90;;;;;;5074067;28;20208;-87
2021/01/26 09:14:17;;;;;;;2.80;2.35;;;2.50;99.90;;;;;;5072458;28;20228;-88
2021/01/26 09:16:44;;;;;;;3.13;2.67;;;2.60;99.90;;;;;;5074913;28;20201;-86
2021/01/26 09:19:17;;;;;;;4.25;2.90;;;2.70;99.90;;;;;;5072148;28;20715;-82
2021/01/26 09:21:44;;;;;;;3.88;3.30;;;2.90;99.90;;;;;;5047092;28;20206;-83
2021/01/26 09:24:11;;;;;;;2.60;2.38;;;3.10;99.90;;;;;;5053734;28;20285;-87
2021/01/26 09:26:38;;;;;;;3.42;2.40;;;3.00;99.90;;;;;;5070648;28;20201;-88
2021/01/26 09:29:05;;;;;;;2.97;2.25;;;3.00;99.90;;;;;;5073095;28;20293;-86
2021/01/26 09:31:31;;;;;;;3.28;2.70;;;2.90;99.90;;;;;;5072861;28;20297;-86
2021/01/26 09:34:03;;;;;;;3.90;2.45;;;3.20;99.90;;;;;;5071903;28;20233;-83
2021/01/26 09:36:30;;;;;;;3.00;2.40;;;3.10;99.90;;;;;;5073629;28;20549;-87
2021/01/26 09:39:04;;;;;;;4.28;2.30;;;3.20;99.90;;;;;;5074454;28;20620;-90
2021/01/26 09:41:32;;;;;;;2.55;1.65;;;3.30;99.90;;;;;;5074058;28;20201;-84
2021/01/26 09:44:05;;;;;;;3.53;2.20;;;3.30;99.90;;;;;;5038730;28;20205;-87
2021/01/26 09:46:34;;;;;;;2.72;1.67;;;3.20;99.90;;;;;;5075113;28;20269;-92
2021/01/26 09:49:14;;;;;;;2.47;2.28;;;3.50;99.90;;;;;;5094422;23;20209;-90
2021/01/26 09:51:44;;;;;;;2.00;1.90;;;3.50;99.90;;;;;;5078616;28;20225;-92
2021/01/26 09:54:14;;;;;;;7.97;2.30;;;3.30;99.90;;;;;;5076598;28;20294;-91
2021/01/26 09:56:40;;;;;;;5.43;3.05;;;3.30;99.90;;;;;;5074061;28;20201;-89
2021/01/26 09:59:14;;;;;;;8.45;7.65;;;3.20;99.90;;;;;;5073420;28;20260;-89
2021/01/26 10:01:42;;;;;;;2.10;1.90;;;3.20;99.90;;;;;;5074215;28;20657;-91
2021/01/26 10:04:09;;;;;;;1.67;1.58;;;3.10;99.90;;;;;;5071716;28;20208;-87
2021/01/26 10:06:37;;;;;;;3.92;2.42;;;3.10;99.90;;;;;;5074931;28;20205;-89
2021/01/26 10:09:19;;;;;;;2.20;2.00;;;3.10;99.90;;;;;;5075200;28;20682;-92
2021/01/26 10:11:45;;;;;;;4.43;2.78;;;3.10;99.90;;;;;;5076325;28;20727;-87
2021/01/26 10:14:18;;;;;;;5.75;1.90;;;3.10;99.90;;;;;;5075698;28;20224;-89
2021/01/26 10:16:46;;;;;;;3.80;1.70;;;3.10;99.90;;;;;;5073072;28;20208;-90
2021/01/26 10:19:15;;;;;;;2.15;1.92;;;3.10;99.90;;;;;;5075268;28;20198;-91
2021/01/26 10:21:42;;;;;;;3.88;2.47;;;3.20;99.90;;;;;;5089853;28;20228;-92
2021/01/26 10:24:14;;;;;;;1.98;0.98;;;3.40;99.90;;;;;;5091836;28;20243;-93
2021/01/26 10:26:42;;;;;;;2.13;1.92;;;3.50;99.90;;;;;;5096878;28;20555;-89
2021/01/26 10:29:22;;;;;;;6.68;3.97;;;3.40;99.90;;;;;;5091699;28;20197;-91
2021/01/26 10:31:51;;;;;;;4.07;2.53;;;3.70;99.90;;;;;;5094174;28;20742;-89
2021/01/26 10:34:42;;;;;;;2.15;1.70;;;3.60;99.90;;;;;;5094500;28;20316;-84
2021/01/26 10:37:30;;;;;;;3.13;2.60;;;3.60;99.90;;;;;;5060676;28;20251;-88
2021/01/26 10:40:17;;;;;;;2.53;2.30;;;3.70;99.90;;;;;;5075664;28;20288;-92
2021/01/26 10:42:54;;;;;;;2.50;2.28;;;3.90;99.90;;;;;;5080069;28;20268;-91
2021/01/26 10:45:34;;;;;;;3.55;2.15;;;4.20;99.90;;;;;;5078403;28;20673;-90
2021/01/26 10:48:08;;;;;;;2.97;1.50;;;3.90;99.90;;;;;;5074692;28;20231;-89
2021/01/26 10:50:35;;;;;;;2.40;2.20;;;3.80;99.90;;;;;;5074156;28;20228;-87
2021/01/26 10:53:01;;;;;;;2.50;2.15;;;3.60;99.90;;;;;;5076491;28;20265;-92
2021/01/26 10:55:28;;;;;;;2.85;2.38;;;3.60;99.90;;;;;;5073142;28;20248;-87
2021/01/26 10:57:54;;;;;;;4.90;4.22;;;3.70;99.90;;;;;;5076677;28;20248;-88
2021/01/26 11:00:26;;;;;;;4.07;2.38;;;3.80;99.90;;;;;;5079404;28;20207;-88
2021/01/26 11:02:53;;;;;;;2.25;1.98;;;3.80;99.90;;;;;;5078289;28;20205;-92
2021/01/26 11:05:20;;;;;;;3.17;2.88;;;3.50;99.90;;;;;;5078876;28;20728;-88
2021/01/26 11:07:47;;;;;;;3.80;2.75;;;3.70;99.90;;;;;;5086830;28;20236;-89
2021/01/26 11:10:14;;;;;;;2.25;1.92;;;3.60;99.90;;;;;;5084786;28;20212;-87
2021/01/26 11:12:40;;;;;;;3.95;1.60;;;3.60;99.90;;;;;;5083038;28;20255;-91
2021/01/26 11:15:10;;;;;;;2.75;1.75;;;3.50;99.90;;;;;;5087358;28;20288;-87
2021/01/26 11:17:37;;;;;;;3.25;2.30;;;3.50;99.90;;;;;;5090613;28;20209;-92
2021/01/26 11:20:04;;;;;;;5.25;3.88;;;3.50;99.90;;;;;;5095901;28;20256;-90
2021/01/26 11:22:31;;;;;;;2.38;2.15;;;3.60;99.90;;;;;;5096974;28;20205;-84
2021/01/26 11:24:57;;;;;;;2.08;1.88;;;3.50;99.90;;;;;;5086343;28;20300;-84
2021/01/26 11:27:24;;;;;;;2.85;1.98;;;3.80;99.90;;;;;;5076328;28;20205;-86
2021/01/26 11:29:50;;;;;;;1.60;1.50;;;3.70;99.90;;;;;;5040589;28;20204;-86
2021/01/26 11:32:18;;;;;;;7.30;2.30;;;3.50;99.90;;;;;;5074888;28;20441;-84
2021/01/26 11:34:46;;;;;;;4.10;2.38;;;3.60;99.90;;;;;;5074867;28;20495;-83
2021/01/26 11:37:13;;;;;;;1.85;1.50;;;3.60;99.90;;;;;;5075796;28;20267;-87
2021/01/26 11:39:39;;;;;;;1.83;1.23;;;3.50;99.90;;;;;;5094483;28;20248;-85
2021/01/26 11:42:06;;;;;;;2.10;1.88;;;3.70;99.90;;;;;;5096251;28;20291;-87
2021/01/26 11:44:33;;;;;;;2.08;1.88;;;3.80;99.90;;;;;;5096624;28;20667;-90
2021/01/26 11:46:59;;;;;;;8.20;4.40;;;3.70;99.90;;;;;;5095315;28;20215;-85
2021/01/26 11:49:25;;;;;;;3.75;1.70;;;3.70;99.90;;;;;;5094618;28;20630;-80
2021/01/26 11:51:53;;;;;;;4.53;1.90;;;3.50;99.90;;;;;;5094975;28;20291;-83
2021/01/26 11:54:19;;;;;;;4.18;2.22;;;3.50;99.90;;;;;;5095285;28;20316;-84
2021/01/26 11:56:45;;;;;;;1.70;1.60;;;3.50;99.90;;;;;;5095343;28;20201;-83
2021/01/26 11:59:12;;;;;;;1.90;1.73;;;3.60;99.90;;;;;;5095260;28;20326;-82
2021/01/26 12:01:38;;;;;;;2.30;1.80;;;3.80;99.90;;;;;;5096676;28;20659;-84
2021/01/26 12:04:05;;;;;;;4.53;1.85;;;3.70;99.90;;;;;;5093765;28;20296;-84
2021/01/26 12:06:31;;;;;;;2.60;1.80;;;3.80;99.90;;;;;;5095297;28;20205;-85
2021/01/26 12:08:58;;;;;;;2.08;1.52;;;3.80;99.90;;;;;;5095114;28;20300;-85
2021/01/26 12:11:25;;;;;;;2.63;1.85;;;3.90;99.90;;;;;;5095014;28;20211;-86
2021/01/26 12:13:51;;;;;;;4.57;2.53;;;4.10;99.90;;;;;;5094710;28;20224;-84
2021/01/26 12:16:18;;;;;;;1.60;1.50;;;4.20;99.90;;;;;;5095003;28;20735;-88
2021/01/26 12:18:44;;;;;;;7.07;3.13;;;4.10;99.90;;;;;;5095517;28;20271;-81
2021/01/26 12:21:10;;;;;;;2.45;2.13;;;3.90;99.90;;;;;;5091746;28;20565;-81
2021/01/26 12:23:37;;;;;;;8.27;3.25;;;3.80;99.90;;;;;;5095227;28;20666;-90
2021/01/26 12:26:07;;;;;;;2.33;2.00;;;3.80;99.90;;;;;;5095835;28;20280;-84
2021/01/26 12:28:34;;;;;;;5.38;1.75;;;3.70;99.90;;;;;;5095348;28;20209;-84
2021/01/26 12:31:00;;;;;;;5.47;2.53;;;3.80;99.90;;;;;;5096061;28;20634;-87
2021/01/26 12:33:27;;;;;;;2.28;1.48;;;3.70;99.90;;;;;;5094634;28;20300;-84
2021/01/26 12:35:53;;;;;;;4.00;2.70;;;3.80;99.90;;;;;;5093923;28;20303;-83
2021/01/26 12:38:19;;;;;;;2.60;1.85;;;4.00;99.90;;;;;;5095673;28;20207;-79
2021/01/26 12:40:46;;;;;;;7.60;3.15;;;3.80;99.90;;;;;;5095357;28;20288;-84
2021/01/26 12:43:13;;;;;;;2.63;2.42;;;4.00;99.90;;;;;;5095184;28;20201;-88
2021/01/26 12:45:40;;;;;;;4.65;3.05;;;4.10;99.90;;;;;;5099621;28;20273;-85
2021/01/26 12:48:07;;;;;;;4.50;3.15;;;3.90;99.90;;;;;;5118673;28;20204;-85
2021/01/26 12:50:36;;;;;;;2.15;1.95;;;4.00;99.90;;;;;;5115249;28;20256;-88
2021/01/26 12:53:03;;;;;;;5.47;2.92;;;4.20;99.90;;;;;;5105118;28;20273;-88
2021/01/26 12:55:29;;;;;;;4.85;3.20;;;4.20;99.90;;;;;;5116297;28;20216;-86
2021/01/26 12:57:56;;;;;;;5.10;3.80;;;4.10;99.90;;;;;;5119835;28;20188;-87
2021/01/26 13:00:25;;;;;;;3.40;3.00;;;4.30;99.90;;;;;;5118230;28;20227;-86
2021/01/26 13:02:53;;;;;;;5.82;2.63;;;4.20;99.90;;;;;;5105677;28;20221;-85
2021/01/26 13:05:20;;;;;;;4.95;2.30;;;4.10;99.90;;;;;;5103374;28;20249;-87
2021/01/26 13:07:46;;;;;;;2.45;2.17;;;4.30;99.90;;;;;;5097025;28;20265;-86
2021/01/26 13:10:14;;;;;;;3.47;1.98;;;4.20;99.90;;;;;;5091182;28;20209;-85
2021/01/26 13:12:40;;;;;;;4.90;2.70;;;4.30;99.90;;;;;;5096860;28;20292;-84
2021/01/26 13:15:09;;;;;;;3.50;3.20;;;4.30;99.90;;;;;;5097443;28;20707;-86
2021/01/26 13:17:36;;;;;;;4.13;2.25;;;4.50;99.90;;;;;;5096754;28;20205;-81
2021/01/26 13:20:05;;;;;;;3.30;2.25;;;4.50;99.90;;;;;;5093664;28;20797;-86
2021/01/26 13:22:32;;;;;;;2.70;1.70;;;4.40;99.70;;;;;;5094100;28;20207;-85